createdAt,value
2022-09-07T00:00:56.888Z,92.78
2022-09-07T00:03:00.208Z,94.07
2022-09-07T00:05:03.524Z,92.62
2022-09-07T00:07:06.717Z,93.97
2022-09-07T00:09:09.945Z,92.43
2022-09-07T00:11:14.882Z,93.99
2022-09-07T00:13:19.912Z,93.83
2022-09-07T00:15:23.182Z,94.02
2022-09-07T00:17:26.296Z,93.27
2022-09-07T00:19:29.489Z,94.08
2022-09-07T00:21:32.923Z,93.00
2022-09-07T00:23:37.549Z,93.64
2022-09-07T00:25:44.294Z,94.77
2022-09-07T00:27:47.462Z,94.83
2022-09-07T00:29:51.928Z,94.06
2022-09-07T00:31:55.659Z,94.01
2022-09-07T00:34:00.544Z,93.86
2022-09-07T00:36:04.039Z,94.03
2022-09-07T00:38:07.127Z,93.49
2022-09-07T00:40:10.720Z,93.76
2022-09-07T00:42:13.918Z,93.28
2022-09-07T00:45:09.919Z,94.66
2022-09-07T00:47:17.544Z,94.91
2022-09-07T00:49:23.028Z,94.87
2022-09-07T00:51:33.938Z,95.12
2022-09-07T00:53:39.532Z,94.31
2022-09-07T00:55:47.316Z,93.95
2022-09-07T00:57:54.627Z,93.37
2022-09-07T00:59:59.184Z,93.12
2022-09-07T01:02:02.915Z,93.83
2022-09-07T01:04:08.127Z,92.96
2022-09-07T01:06:16.407Z,93.91
2022-09-07T01:08:19.658Z,94.35
2022-09-07T01:10:24.824Z,94.46
2022-09-07T01:12:27.896Z,94.86
2022-09-07T01:14:32.976Z,94.46
2022-09-07T01:16:58.883Z,93.51
2022-09-07T01:19:13.549Z,93.86
2022-09-07T01:21:27.290Z,92.92
2022-09-07T01:24:03.657Z,94.02
2022-09-07T01:26:33.774Z,93.92
2022-09-07T01:28:38.854Z,93.68
2022-09-07T01:30:46.201Z,94.55
2022-09-07T01:33:02.485Z,93.56
2022-09-07T01:35:11.518Z,93.74
2022-09-07T01:37:20.806Z,94.38
2022-09-07T01:39:26.649Z,94.38
2022-09-07T01:41:34.050Z,94.66
2022-09-07T01:43:42.797Z,94.29
2022-09-07T01:45:46.485Z,93.50
2022-09-07T01:47:53.285Z,93.63
2022-09-07T01:49:59.840Z,93.34
2022-09-07T01:52:06.303Z,94.85
2022-09-07T01:54:12.362Z,94.49
2022-09-07T01:56:23.553Z,93.93
2022-09-07T01:58:30.282Z,94.15
2022-09-07T02:00:35.837Z,94.87
2022-09-07T02:02:41.952Z,94.91
2022-09-07T02:04:49.661Z,95.72
2022-09-07T02:06:57.263Z,95.38
2022-09-07T02:09:03.282Z,94.96
2022-09-07T02:11:10.874Z,95.64
2022-09-07T02:13:17.898Z,94.71
2022-09-07T02:15:24.366Z,95.39
2022-09-07T02:17:32.291Z,95.51
2022-09-07T02:19:39.260Z,96.19
2022-09-07T02:21:44.481Z,95.37
2022-09-07T02:23:51.944Z,96.22
2022-09-07T02:25:58.148Z,96.31
2022-09-07T02:28:06.384Z,96.45
2022-09-07T02:30:10.557Z,95.02
2022-09-07T02:32:13.596Z,95.78
2022-09-07T02:34:18.089Z,95.58
2022-09-07T02:36:24.170Z,96.58
2022-09-07T02:38:27.369Z,96.33
2022-09-07T02:40:33.065Z,96.52
2022-09-07T02:42:36.567Z,96.32
2022-09-07T02:44:41.242Z,96.19
2022-09-07T02:46:54.156Z,95.28
2022-09-07T02:49:02.184Z,96.35
2022-09-07T02:51:16.688Z,96.53
2022-09-07T02:53:31.500Z,95.45
2022-09-07T02:55:42.942Z,96.18
2022-09-07T02:57:51.659Z,95.12
2022-09-07T03:00:03.914Z,95.06
2022-09-07T03:02:12.828Z,95.98
2022-09-07T03:04:20.997Z,95.80
2022-09-07T03:06:28.798Z,95.03
2022-09-07T03:08:37.705Z,96.10
2022-09-07T03:10:41.548Z,96.33
2022-09-07T03:12:46.216Z,96.84
2022-09-07T03:14:49.388Z,95.84
2022-09-07T03:16:57.336Z,95.38
2022-09-07T03:19:00.672Z,95.46
2022-09-07T03:21:03.741Z,96.07
2022-09-07T03:23:08.274Z,95.31
2022-09-07T03:25:11.592Z,96.42
2022-09-07T03:27:14.605Z,96.59
2022-09-07T03:29:17.752Z,95.40
2022-09-07T03:31:23.437Z,95.45
2022-09-07T03:33:26.623Z,96.36
2022-09-07T03:35:29.855Z,96.24
2022-09-07T03:37:33.128Z,96.66
2022-09-07T03:39:37.630Z,96.55
2022-09-07T03:41:40.887Z,95.93
2022-09-07T03:43:44.136Z,96.62
2022-09-07T03:45:49.735Z,95.46
2022-09-07T03:47:53.201Z,95.45
2022-09-07T03:49:56.285Z,96.20
2022-09-07T03:51:59.361Z,95.43
2022-09-07T03:54:02.481Z,96.56
2022-09-07T03:56:08.967Z,95.60
2022-09-07T03:58:11.988Z,94.87
2022-09-07T04:00:16.162Z,95.82
2022-09-07T04:02:19.658Z,95.58
2022-09-07T04:04:22.763Z,94.48
2022-09-07T04:06:26.398Z,94.60
2022-09-07T04:08:30.600Z,95.01
2022-09-07T04:10:38.470Z,95.39
2022-09-07T04:12:42.923Z,96.00
2022-09-07T04:14:46.393Z,94.41
2022-09-07T04:16:50.578Z,95.06
2022-09-07T04:18:54.828Z,95.53
2022-09-07T04:21:00.035Z,94.21
2022-09-07T04:23:06.075Z,94.66
2022-09-07T04:25:09.722Z,94.38
2022-09-07T04:27:12.850Z,94.19
2022-09-07T04:29:17.339Z,94.46
2022-09-07T04:31:20.922Z,94.60
2022-09-07T04:33:24.149Z,94.50
2022-09-07T04:35:27.227Z,95.38
2022-09-07T04:37:30.460Z,95.14
2022-09-07T04:39:33.542Z,94.21
2022-09-07T04:41:36.637Z,93.94
2022-09-07T04:43:40.980Z,94.42
2022-09-07T04:45:45.450Z,94.48
2022-09-07T04:47:49.238Z,94.88
2022-09-07T04:49:52.380Z,94.54
2022-09-07T04:51:55.524Z,94.50
2022-09-07T04:54:00.567Z,94.99
2022-09-07T04:56:03.997Z,94.55
2022-09-07T04:58:07.358Z,95.13
2022-09-07T05:00:11.662Z,95.51
2022-09-07T05:02:16.271Z,94.57
2022-09-07T05:04:19.413Z,94.63
2022-09-07T05:06:23.322Z,94.63
2022-09-07T05:08:26.518Z,95.53
2022-09-07T05:10:29.629Z,94.69
2022-09-07T05:12:32.787Z,95.43
2022-09-07T05:14:35.850Z,95.38
2022-09-07T05:16:39.069Z,95.36
2022-09-07T05:18:43.645Z,95.06
2022-09-07T05:20:46.730Z,95.18
2022-09-07T05:22:49.870Z,95.35
2022-09-07T05:24:53.105Z,95.34
2022-09-07T05:26:56.195Z,95.50
2022-09-07T05:31:25.449Z,95.62
2022-09-07T05:35:58.548Z,95.91
2022-09-07T05:38:01.614Z,94.71
2022-09-07T05:40:05.356Z,94.74
2022-09-07T05:42:08.710Z,94.44
2022-09-07T05:46:35.028Z,93.33
2022-09-07T05:48:38.710Z,91.31
2022-09-07T05:50:54.445Z,91.73
2022-09-07T05:52:59.658Z,92.99
2022-09-07T05:55:19.637Z,91.46
2022-09-07T05:57:25.979Z,89.41
2022-09-07T05:59:29.694Z,89.27
2022-09-07T06:01:35.340Z,89.48
2022-09-07T06:03:39.875Z,89.41
2022-09-07T06:05:42.991Z,88.62
2022-09-07T06:07:49.001Z,87.52
2022-09-07T06:12:16.715Z,85.68
2022-09-07T06:14:19.840Z,85.04
2022-09-07T06:16:23.055Z,85.10
2022-09-07T06:18:30.419Z,84.63
2022-09-07T06:20:33.597Z,85.51
2022-09-07T06:22:37.464Z,84.93
2022-09-07T06:24:40.635Z,83.99
2022-09-07T06:26:45.082Z,83.56
2022-09-07T06:30:54.663Z,82.99
2022-09-07T06:32:57.861Z,81.61
2022-09-07T06:35:00.909Z,82.10
2022-09-07T06:37:03.990Z,80.90
2022-09-07T06:39:07.175Z,81.14
2022-09-07T06:43:36.321Z,80.62
2022-09-07T06:45:39.477Z,79.83
2022-09-07T06:47:42.714Z,79.20
2022-09-07T06:49:45.902Z,79.06
2022-09-07T06:51:49.023Z,78.80
2022-09-07T06:53:52.534Z,79.39
2022-09-07T06:55:55.946Z,78.16
2022-09-07T06:57:59.081Z,78.89
2022-09-07T07:00:04.261Z,78.58
2022-09-07T07:02:08.258Z,77.11
2022-09-07T07:04:11.394Z,77.22
2022-09-07T07:06:15.068Z,76.12
2022-09-07T07:08:18.154Z,75.34
2022-09-07T07:10:24.806Z,73.24
2022-09-07T07:14:34.997Z,72.88
2022-09-07T07:16:40.693Z,72.60
2022-09-07T07:18:44.789Z,72.20
2022-09-07T07:20:47.910Z,70.76
2022-09-07T07:22:52.049Z,70.80
2022-09-07T07:24:55.180Z,69.51
2022-09-07T07:26:58.340Z,70.66
2022-09-07T07:29:03.185Z,70.84
2022-09-07T07:31:11.313Z,71.10
2022-09-07T07:33:17.681Z,71.50
2022-09-07T07:35:20.964Z,71.72
2022-09-07T07:37:28.005Z,71.37
2022-09-07T07:41:56.504Z,72.36
2022-09-07T07:44:03.172Z,70.56
2022-09-07T07:46:06.789Z,70.51
2022-09-07T07:48:12.717Z,69.65
2022-09-07T07:50:33.119Z,69.17
2022-09-07T07:55:42.921Z,68.03
2022-09-07T07:57:30.024Z,66.47
2022-09-07T07:59:33.075Z,65.99
2022-09-07T08:01:36.619Z,66.54
2022-09-07T08:03:42.095Z,67.54
2022-09-07T08:05:46.551Z,67.09
2022-09-07T08:07:49.817Z,68.05
2022-09-07T08:09:52.942Z,68.11
2022-09-07T08:11:56.185Z,67.95
2022-09-07T08:14:00.259Z,68.84
2022-09-07T08:16:05.728Z,68.44
2022-09-07T08:18:08.820Z,68.64
2022-09-07T08:20:11.789Z,66.77
2022-09-07T08:22:16.071Z,66.10
2022-09-07T08:24:19.215Z,66.20
2022-09-07T08:26:22.239Z,65.88
2022-09-07T08:28:25.750Z,65.54
2022-09-07T08:30:29.311Z,66.05
2022-09-07T08:32:32.310Z,64.13
2022-09-07T08:34:37.181Z,64.42
2022-09-07T08:36:40.148Z,65.14
2022-09-07T08:38:44.801Z,65.10
2022-09-07T08:40:47.958Z,64.09
2022-09-07T08:43:01.633Z,64.14
2022-09-07T08:45:07.766Z,63.67
2022-09-07T08:47:20.925Z,63.55
2022-09-07T08:49:31.833Z,62.93
2022-09-07T08:51:38.394Z,63.96
2022-09-07T08:53:46.613Z,63.05
2022-09-07T08:55:52.653Z,63.32
2022-09-07T08:58:01.832Z,63.13
2022-09-07T09:00:08.736Z,61.85
2022-09-07T09:02:34.005Z,61.92
2022-09-07T09:05:16.117Z,62.27
2022-09-07T09:07:10.333Z,62.04
2022-09-07T09:09:21.354Z,62.05
2022-09-07T09:11:29.017Z,62.35
2022-09-07T09:13:42.790Z,62.57
2022-09-07T09:15:54.392Z,62.52
2022-09-07T09:18:02.079Z,62.38
2022-09-07T09:20:14.540Z,62.24
2022-09-07T09:22:20.279Z,62.71
2022-09-07T09:24:31.805Z,61.91
2022-09-07T09:26:35.400Z,62.24
2022-09-07T09:28:39.241Z,62.46
2022-09-07T09:30:43.087Z,62.56
2022-09-07T09:32:47.494Z,62.81
2022-09-07T09:35:02.213Z,62.88
2022-09-07T09:37:05.289Z,62.48
2022-09-07T09:41:43.619Z,61.59
2022-09-07T09:43:48.323Z,61.88
2022-09-07T09:48:20.547Z,62.18
2022-09-07T09:52:51.976Z,61.94
2022-09-07T09:55:03.367Z,62.04
2022-09-07T09:57:15.436Z,62.06
2022-09-07T10:04:24.388Z,61.35
2022-09-07T10:06:27.733Z,61.37
2022-09-07T10:08:32.453Z,60.44
2022-09-07T10:10:35.931Z,61.02
2022-09-07T10:12:41.258Z,60.61
2022-09-07T10:14:45.375Z,60.33
2022-09-07T10:16:48.606Z,60.31
2022-09-07T10:18:56.535Z,59.97
2022-09-07T10:21:23.679Z,60.50
2022-09-07T10:23:28.631Z,60.36
2022-09-07T10:25:33.249Z,60.22
2022-09-07T10:27:38.753Z,60.57
2022-09-07T10:29:43.192Z,60.71
2022-09-07T10:32:05.432Z,60.09
2022-09-07T10:34:27.467Z,60.50
2022-09-07T10:36:36.045Z,60.24
2022-09-07T10:38:43.349Z,58.26
2022-09-07T10:40:51.304Z,59.41
2022-09-07T10:45:29.041Z,59.30
2022-09-07T10:47:43.599Z,59.52
2022-09-07T10:52:17.886Z,60.10
2022-09-07T10:54:30.539Z,60.39
2022-09-07T10:56:37.101Z,60.88
2022-09-07T10:59:07.616Z,60.84
2022-09-07T11:01:18.415Z,60.05
2022-09-07T11:03:32.761Z,60.32
2022-09-07T11:05:41.224Z,59.27
2022-09-07T11:07:56.505Z,59.01
2022-09-07T11:10:01.116Z,58.59
2022-09-07T11:12:08.136Z,57.37
2022-09-07T11:14:14.623Z,57.61
2022-09-07T11:18:51.421Z,57.58
2022-09-07T11:20:56.565Z,57.36
2022-09-07T11:23:07.619Z,58.11
2022-09-07T11:25:33.064Z,58.90
2022-09-07T11:27:40.389Z,58.61
2022-09-07T11:29:48.148Z,58.78
2022-09-07T11:31:55.461Z,58.10
2022-09-07T11:36:27.887Z,58.08
2022-09-07T11:38:35.575Z,57.97
2022-09-07T11:40:44.071Z,57.42
2022-09-07T11:42:50.953Z,57.13
2022-09-07T11:44:58.117Z,57.80
2022-09-07T11:47:05.730Z,57.82
2022-09-07T11:49:15.027Z,57.92
2022-09-07T11:51:22.566Z,57.40
2022-09-07T11:53:29.075Z,57.70
2022-09-07T11:55:36.339Z,57.72
2022-09-07T11:57:45.748Z,58.63
2022-09-07T11:59:57.601Z,58.61
2022-09-07T12:02:14.820Z,58.56
2022-09-07T12:04:56.343Z,58.12
2022-09-07T12:07:10.849Z,56.46
2022-09-07T12:09:26.618Z,57.99
2022-09-07T12:11:39.040Z,56.06
2022-09-07T12:14:17.061Z,57.36
2022-09-07T12:16:24.241Z,57.11
2022-09-07T12:18:41.880Z,56.91
2022-09-07T12:20:46.070Z,56.42
2022-09-07T12:23:05.235Z,56.02
2022-09-07T12:25:09.477Z,57.02
2022-09-07T12:27:42.214Z,56.88
2022-09-07T12:29:45.585Z,56.31
2022-09-07T12:32:07.413Z,56.49
2022-09-07T12:34:54.299Z,56.04
2022-09-07T12:36:57.817Z,55.73
2022-09-07T12:39:20.865Z,56.21
2022-09-07T12:41:25.553Z,56.28
2022-09-07T12:43:53.425Z,56.60
2022-09-07T12:45:56.740Z,56.26
2022-09-07T12:48:01.006Z,55.12
2022-09-07T12:50:22.632Z,54.96
2022-09-07T12:52:50.100Z,54.47
2022-09-07T12:55:23.633Z,54.30
2022-09-07T12:57:31.845Z,54.33
2022-09-07T12:59:46.949Z,54.92
2022-09-07T13:01:58.021Z,55.12
2022-09-07T13:04:50.125Z,55.01
2022-09-07T13:07:10.434Z,55.47
2022-09-07T13:09:30.553Z,55.40
2022-09-07T13:11:36.173Z,55.25
2022-09-07T13:16:29.109Z,55.11
2022-09-07T13:18:43.424Z,55.54
2022-09-07T13:20:47.293Z,55.19
2022-09-07T13:23:13.407Z,54.17
2022-09-07T13:25:46.436Z,54.23
2022-09-07T13:27:53.631Z,55.29
2022-09-07T13:29:58.590Z,54.77
2022-09-07T13:32:08.003Z,55.33
2022-09-07T13:34:46.932Z,55.56
2022-09-07T13:36:50.174Z,54.84
2022-09-07T13:38:55.504Z,54.82
2022-09-07T13:41:02.844Z,54.73
2022-09-07T13:43:06.244Z,54.26
2022-09-07T13:45:28.974Z,54.31
2022-09-07T13:47:38.778Z,54.31
2022-09-07T13:50:00.585Z,54.58
2022-09-07T13:52:07.415Z,54.58
2022-09-07T13:54:18.063Z,54.47
2022-09-07T13:56:31.121Z,54.69
2022-09-07T13:58:35.886Z,55.10
2022-09-07T14:00:51.097Z,54.10
2022-09-07T14:02:56.779Z,53.90
2022-09-07T14:05:01.495Z,54.07
2022-09-07T14:07:06.688Z,53.92
2022-09-07T14:09:16.105Z,53.37
2022-09-07T14:11:20.241Z,54.48
2022-09-07T14:13:23.242Z,54.30
2022-09-07T14:15:30.257Z,53.35
2022-09-07T14:17:33.276Z,53.90
2022-09-07T14:19:39.208Z,53.23
2022-09-07T14:21:42.166Z,53.18
2022-09-07T14:23:50.807Z,53.36
2022-09-07T14:26:17.458Z,53.23
2022-09-07T14:28:31.123Z,53.10
2022-09-07T14:30:34.570Z,52.66
2022-09-07T14:32:38.023Z,53.17
2022-09-07T14:34:41.621Z,53.35
2022-09-07T14:36:46.845Z,53.61
2022-09-07T14:39:06.226Z,53.88
2022-09-07T14:41:14.598Z,53.88
2022-09-07T14:43:33.040Z,53.38
2022-09-07T14:45:37.807Z,53.32
2022-09-07T14:47:40.912Z,52.82
2022-09-07T14:49:43.936Z,52.91
2022-09-07T14:51:48.384Z,53.56
2022-09-07T14:53:52.998Z,53.82
2022-09-07T14:56:02.767Z,54.06
2022-09-07T14:58:11.816Z,54.34
2022-09-07T15:00:27.714Z,53.65
2022-09-07T15:02:36.606Z,53.61
2022-09-07T15:04:41.601Z,53.69
2022-09-07T15:07:02.153Z,53.99
2022-09-07T15:09:07.243Z,54.03
2022-09-07T15:13:40.062Z,54.63
2022-09-07T15:15:46.780Z,55.31
2022-09-07T15:17:50.084Z,55.03
2022-09-07T15:19:53.157Z,55.07
2022-09-07T15:21:56.277Z,54.52
2022-09-07T15:24:00.679Z,54.74
2022-09-07T15:26:03.761Z,54.66
2022-09-07T15:28:07.097Z,54.63
2022-09-07T15:30:12.972Z,55.22
2022-09-07T15:32:17.924Z,54.89
2022-09-07T15:34:21.715Z,54.53
2022-09-07T15:36:24.685Z,54.03
2022-09-07T15:41:18.537Z,54.37
2022-09-07T15:43:30.806Z,54.51
2022-09-07T15:45:35.215Z,54.08
2022-09-07T15:47:53.888Z,54.08
2022-09-07T15:49:57.089Z,53.87
2022-09-07T15:52:07.231Z,55.06
2022-09-07T15:54:14.309Z,55.40
2022-09-07T15:56:20.297Z,54.84
2022-09-07T15:58:23.457Z,55.06
2022-09-07T16:00:26.587Z,54.43
2022-09-07T16:04:54.363Z,55.03
2022-09-07T16:06:57.973Z,54.74
2022-09-07T16:09:01.305Z,54.70
2022-09-07T16:11:18.323Z,54.71
2022-09-07T16:13:23.969Z,55.97
2022-09-07T16:15:27.289Z,55.30
2022-09-07T16:17:36.669Z,55.00
2022-09-07T16:19:41.414Z,55.52
2022-09-07T16:21:44.431Z,56.20
2022-09-07T16:23:49.349Z,55.59
2022-09-07T16:25:59.083Z,55.24
2022-09-07T16:28:02.092Z,55.26
2022-09-07T16:30:05.833Z,55.27
2022-09-07T16:34:33.328Z,55.46
2022-09-07T16:36:36.512Z,55.39
2022-09-07T16:38:45.638Z,55.95
2022-09-07T16:40:49.973Z,55.52
2022-09-07T16:42:53.058Z,56.74
2022-09-07T16:46:02.513Z,56.33
2022-09-07T16:47:19.111Z,56.03
2022-09-07T16:49:22.542Z,56.84
2022-09-07T16:51:28.592Z,55.95
2022-09-07T16:53:33.658Z,56.84
2022-09-07T16:55:36.671Z,56.95
2022-09-07T17:00:03.737Z,58.18
2022-09-07T17:02:06.727Z,58.05
2022-09-07T17:04:11.468Z,57.53
2022-09-07T17:06:15.236Z,58.71
2022-09-07T17:08:19.839Z,57.92
2022-09-07T17:10:23.206Z,58.17
2022-09-07T17:12:26.801Z,58.49
2022-09-07T17:14:29.895Z,59.31
2022-09-07T17:16:34.596Z,57.99
2022-09-07T17:21:03.381Z,58.40
2022-09-07T17:23:06.381Z,58.04
2022-09-07T17:25:11.674Z,58.10
2022-09-07T17:27:17.002Z,58.23
2022-09-07T17:29:20.400Z,57.99
2022-09-07T17:33:50.566Z,58.41
2022-09-07T17:35:53.770Z,58.76
2022-09-07T17:37:57.303Z,59.89
2022-09-07T17:40:03.425Z,59.27
2022-09-07T17:42:09.855Z,59.61
2022-09-07T17:44:12.937Z,60.17
2022-09-07T17:46:19.222Z,60.27
2022-09-07T17:48:22.221Z,61.18
2022-09-07T17:50:25.262Z,61.89
2022-09-07T17:52:28.714Z,61.35
2022-09-07T17:54:32.818Z,61.67
2022-09-07T17:56:35.994Z,62.18
2022-09-07T17:58:41.426Z,62.46
2022-09-07T18:00:45.981Z,62.79
2022-09-07T18:02:49.224Z,62.71
2022-09-07T18:04:52.204Z,62.85
2022-09-07T18:06:55.327Z,63.24
2022-09-07T18:08:58.742Z,63.25
2022-09-07T18:13:36.211Z,62.97
2022-09-07T18:15:41.975Z,63.24
2022-09-07T18:17:45.138Z,62.98
2022-09-07T18:19:48.203Z,62.81
2022-09-07T18:21:52.040Z,62.08
2022-09-07T18:23:56.175Z,62.28
2022-09-07T18:26:00.600Z,62.74
2022-09-07T18:30:27.616Z,63.30
2022-09-07T18:32:32.268Z,63.68
2022-09-07T18:34:35.603Z,64.73
2022-09-07T18:36:40.723Z,65.41
2022-09-07T18:38:43.737Z,65.37
2022-09-07T18:40:46.890Z,65.97
2022-09-07T18:42:50.067Z,65.55
2022-09-07T18:47:27.919Z,66.10
2022-09-07T18:49:32.991Z,66.03
2022-09-07T18:54:02.124Z,65.73
2022-09-07T18:56:06.570Z,66.08
2022-09-07T18:58:09.562Z,66.23
2022-09-07T19:00:13.790Z,66.69
2022-09-07T19:02:19.035Z,67.30
2022-09-07T19:04:25.351Z,67.17
2022-09-07T19:06:29.794Z,67.26
2022-09-07T19:08:33.380Z,67.61
2022-09-07T19:10:37.173Z,68.92
2022-09-07T19:12:45.041Z,68.63
2022-09-07T19:14:49.021Z,68.34
2022-09-07T19:16:52.319Z,68.36
2022-09-07T19:18:56.680Z,68.81
2022-09-07T19:21:03.349Z,68.41
2022-09-07T19:23:07.840Z,69.00
2022-09-07T19:25:11.289Z,68.28
2022-09-07T19:27:14.358Z,68.47
2022-09-07T19:29:19.311Z,67.87
2022-09-07T19:31:22.511Z,67.79
2022-09-07T19:33:26.727Z,67.72
2022-09-07T19:35:30.089Z,68.76
2022-09-07T19:37:33.127Z,68.93
2022-09-07T19:39:37.995Z,68.18
2022-09-07T19:41:44.997Z,68.52
2022-09-07T19:43:48.463Z,69.76
2022-09-07T19:45:51.608Z,69.50
2022-09-07T19:47:54.670Z,70.17
2022-09-07T19:49:58.011Z,68.80
2022-09-07T19:52:01.172Z,68.55
2022-09-07T19:54:04.181Z,69.27
2022-09-07T19:56:09.980Z,69.72
2022-09-07T19:58:13.767Z,70.25
2022-09-07T20:00:17.198Z,70.32
2022-09-07T20:02:20.292Z,70.41
2022-09-07T20:04:24.177Z,71.34
2022-09-07T20:06:28.021Z,70.11
2022-09-07T20:08:31.062Z,69.81
2022-09-07T20:10:34.798Z,69.60
2022-09-07T20:12:39.255Z,69.68
2022-09-07T20:14:42.254Z,70.04
2022-09-07T20:16:45.437Z,69.56
2022-09-07T20:18:48.826Z,69.15
2022-09-07T20:20:51.905Z,69.28
2022-09-07T20:22:54.983Z,69.63
2022-09-07T20:24:58.093Z,69.53
2022-09-07T20:27:02.742Z,69.82
2022-09-07T20:31:30.548Z,71.33
2022-09-07T20:33:33.725Z,71.81
2022-09-07T20:35:36.961Z,71.69
2022-09-07T20:37:39.989Z,73.12
2022-09-07T20:39:43.212Z,72.89
2022-09-07T20:41:46.439Z,72.89
2022-09-07T20:43:50.213Z,71.25
2022-09-07T20:45:58.466Z,71.86
2022-09-07T20:48:01.505Z,71.04
2022-09-07T20:50:05.190Z,71.56
2022-09-07T20:52:08.264Z,71.85
2022-09-07T20:54:11.231Z,71.04
2022-09-07T20:56:16.445Z,71.78
2022-09-07T20:58:19.420Z,71.94
2022-09-07T21:00:22.440Z,71.71
2022-09-07T21:02:26.899Z,72.77
2022-09-07T21:04:30.038Z,73.68
2022-09-07T21:06:33.800Z,73.84
2022-09-07T21:08:37.799Z,72.84
2022-09-07T21:10:41.088Z,73.20
2022-09-07T21:12:44.062Z,74.26
2022-09-07T21:14:47.052Z,74.03
2022-09-07T21:16:50.031Z,75.26
2022-09-07T21:18:56.557Z,74.17
2022-09-07T21:21:18.941Z,73.96
2022-09-07T21:23:23.302Z,74.39
2022-09-07T21:25:26.701Z,74.66
2022-09-07T21:27:38.136Z,74.14
2022-09-07T21:29:41.592Z,75.03
2022-09-07T21:31:44.781Z,76.21
2022-09-07T21:33:47.823Z,75.75
2022-09-07T21:35:52.317Z,75.54
2022-09-07T21:37:55.413Z,75.36
2022-09-07T21:39:59.171Z,75.21
2022-09-07T21:42:02.224Z,75.56
2022-09-07T21:44:05.575Z,74.64
2022-09-07T21:46:09.090Z,75.67
2022-09-07T21:48:12.192Z,76.27
2022-09-07T21:50:15.191Z,75.96
2022-09-07T21:52:19.820Z,76.63
2022-09-07T21:54:22.794Z,76.36
2022-09-07T21:56:26.180Z,76.02
2022-09-07T21:58:30.366Z,75.53
2022-09-07T22:00:33.382Z,75.85
2022-09-07T22:02:36.485Z,75.28
2022-09-07T22:04:39.698Z,75.91
2022-09-07T22:06:43.850Z,75.66
2022-09-07T22:08:48.201Z,75.70
2022-09-07T22:10:51.148Z,75.98
2022-09-07T22:12:55.711Z,76.21
2022-09-07T22:14:58.748Z,76.61
2022-09-07T22:17:02.432Z,75.27
2022-09-07T22:19:05.534Z,77.16
2022-09-07T22:21:10.187Z,76.96
2022-09-07T22:23:13.266Z,77.46
2022-09-07T22:25:17.949Z,76.35
2022-09-07T22:27:21.139Z,75.29
2022-09-07T22:29:24.219Z,75.26
2022-09-07T22:31:29.037Z,75.56
2022-09-07T22:33:32.198Z,76.17
2022-09-07T22:35:35.292Z,76.77
2022-09-07T22:37:38.339Z,77.49
2022-09-07T22:39:41.483Z,77.95
2022-09-07T22:41:47.220Z,78.16
2022-09-07T22:43:51.071Z,78.46
2022-09-07T22:45:54.385Z,78.58
2022-09-07T22:47:57.664Z,78.96
2022-09-07T22:50:00.661Z,79.80
2022-09-07T22:52:03.991Z,80.13
2022-09-07T22:54:07.926Z,80.82
2022-09-07T22:56:12.223Z,80.98
2022-09-07T22:58:16.551Z,80.90
2022-09-07T23:00:19.573Z,81.06
2022-09-07T23:02:22.756Z,80.50
2022-09-07T23:04:30.995Z,80.24
